Time;durP1;ratioP1;P1;durP2;ratioP2;P2;SDS_P1;SDS_P2;PMS_P1;PMS_P2;Temp;Humidity;BMP_temperature;BMP_pressure;BME280_temperature;BME280_humidity;BME280_pressure;Samples;Min_cycle;Max_cycle;Signal;HPM_P1;HPM_P2
2023/10/04 00:03:24;;;;;;;3.10;2.60;;;24.40;60.00;;;;;;217251;1298;22593;-65
2023/10/04 00:08:29;;;;;;;3.20;2.70;;;24.30;60.10;;;;;;217471;1295;22582;-65
2023/10/04 00:13:33;;;;;;;3.60;2.70;;;24.40;60.10;;;;;;217464;1298;22764;-67
2023/10/04 00:18:36;;;;;;;4.10;2.90;;;24.30;60.10;;;;;;217569;1285;22562;-64
2023/10/04 00:23:39;;;;;;;2.50;2.20;;;24.30;60.40;;;;;;217436;1298;24085;-65
2023/10/04 00:28:42;;;;;;;4.40;2.80;;;24.30;60.00;;;;;;217340;1298;22660;-64
2023/10/04 00:33:45;;;;;;;3.70;2.60;;;24.30;59.90;;;;;;217420;1298;24325;-65
2023/10/04 00:38:48;;;;;;;3.00;2.70;;;24.40;59.80;;;;;;217283;1294;22701;-64
2023/10/04 00:43:52;;;;;;;5.80;3.30;;;24.30;59.90;;;;;;217538;1298;22571;-65
2023/10/04 00:48:57;;;;;;;3.20;2.50;;;24.30;59.90;;;;;;217402;1298;24270;-65
2023/10/04 00:54:00;;;;;;;3.50;2.70;;;24.40;59.50;;;;;;217258;1298;22831;-65
2023/10/04 00:59:03;;;;;;;2.40;2.20;;;24.40;59.80;;;;;;217289;1298;24327;-65
2023/10/04 01:04:07;;;;;;;3.50;2.70;;;24.40;59.60;;;;;;217199;1298;23934;-65
2023/10/04 01:09:11;;;;;;;3.90;2.80;;;24.40;59.50;;;;;;217357;1298;22559;-66
2023/10/04 01:14:23;;;;;;;4.70;3.00;;;24.30;59.60;;;;;;217267;1298;22561;-65
2023/10/04 01:19:26;;;;;;;2.70;2.40;;;24.30;59.60;;;;;;217372;1299;24351;-65
2023/10/04 01:24:29;;;;;;;2.50;2.30;;;24.30;59.60;;;;;;217545;1298;22551;-64
2023/10/04 01:29:32;;;;;;;3.80;2.60;;;24.20;60.00;;;;;;217296;1298;22588;-69
2023/10/04 01:34:36;;;;;;;2.50;2.10;;;24.30;59.50;;;;;;217460;1298;22552;-65
2023/10/04 01:39:44;;;;;;;4.10;2.50;;;24.30;59.60;;;;;;217403;1298;22799;-65
2023/10/04 01:44:47;;;;;;;1.90;1.80;;;24.20;59.50;;;;;;217378;1296;22572;-66
2023/10/04 01:49:50;;;;;;;4.70;2.70;;;24.20;59.50;;;;;;217569;1283;22549;-66
2023/10/04 01:54:53;;;;;;;3.90;2.30;;;24.20;59.50;;;;;;217222;1298;22565;-65
2023/10/04 01:59:56;;;;;;;2.10;1.90;;;24.10;59.50;;;;;;217447;1298;22572;-67
2023/10/04 02:05:01;;;;;;;2.80;2.20;;;24.10;59.40;;;;;;217312;1292;22931;-64
2023/10/04 02:10:08;;;;;;;3.50;2.40;;;24.10;59.40;;;;;;217243;1298;24094;-63
2023/10/04 02:15:15;;;;;;;4.60;2.90;;;24.10;59.50;;;;;;217398;1298;24218;-66
2023/10/04 02:20:24;;;;;;;4.40;2.50;;;24.10;59.40;;;;;;217254;1295;22692;-64
2023/10/04 02:25:28;;;;;;;2.10;1.90;;;24.10;59.40;;;;;;217217;1298;25037;-65
2023/10/04 02:30:31;;;;;;;2.60;2.00;;;24.10;59.30;;;;;;217325;1299;25279;-66
2023/10/04 02:35:36;;;;;;;2.60;2.20;;;24.10;59.40;;;;;;217423;1296;25539;-65
2023/10/04 02:40:39;;;;;;;2.60;2.40;;;24.00;59.40;;;;;;217185;1293;25215;-64
2023/10/04 02:45:42;;;;;;;3.50;2.10;;;24.00;59.40;;;;;;217454;1298;22638;-66
2023/10/04 02:50:46;;;;;;;2.40;1.70;;;24.00;59.40;;;;;;217299;1298;26798;-65
2023/10/04 02:55:54;;;;;;;2.40;1.90;;;24.10;59.30;;;;;;217346;1298;22556;-65
2023/10/04 03:01:00;;;;;;;2.60;2.00;;;24.00;59.30;;;;;;217404;1292;22608;-65
2023/10/04 03:06:03;;;;;;;5.30;2.90;;;24.00;59.30;;;;;;216967;1291;324911;-67
2023/10/04 03:11:07;;;;;;;2.40;2.10;;;24.00;59.30;;;;;;217435;1298;22568;-65
2023/10/04 03:16:11;;;;;;;3.80;2.20;;;24.00;59.30;;;;;;217660;1298;23759;-67
2023/10/04 03:21:20;;;;;;;3.30;1.90;;;24.00;59.20;;;;;;217097;1298;24296;-64
2023/10/04 03:26:23;;;;;;;1.60;1.50;;;23.90;59.30;;;;;;217282;1298;22697;-65
2023/10/04 03:31:30;;;;;;;5.10;1.70;;;23.90;59.20;;;;;;217468;1298;25418;-67
2023/10/04 03:36:34;;;;;;;3.10;2.10;;;23.90;59.20;;;;;;217285;1298;25368;-66
2023/10/04 03:41:42;;;;;;;2.10;1.70;;;23.90;59.20;;;;;;217135;1298;23933;-65
2023/10/04 03:46:46;;;;;;;3.60;2.00;;;23.90;59.30;;;;;;217536;1298;22674;-66
2023/10/04 03:51:49;;;;;;;3.30;2.20;;;23.90;59.60;;;;;;217409;1291;22575;-66
2023/10/04 03:56:53;;;;;;;2.50;2.00;;;23.90;59.30;;;;;;217245;1298;23938;-61
2023/10/04 04:01:56;;;;;;;2.50;1.60;;;23.90;59.30;;;;;;217561;1298;22699;-62
2023/10/04 04:06:59;;;;;;;1.60;1.50;;;23.80;59.30;;;;;;217132;1297;22698;-61
2023/10/04 04:12:03;;;;;;;2.80;1.60;;;23.80;59.20;;;;;;217352;1294;22566;-60
2023/10/04 04:17:06;;;;;;;2.00;1.50;;;23.80;59.70;;;;;;217325;1292;22572;-61
2023/10/04 04:22:09;;;;;;;2.90;1.80;;;23.90;59.30;;;;;;217349;1294;22549;-61
2023/10/04 04:27:12;;;;;;;1.50;1.40;;;23.80;59.10;;;;;;217313;1298;22547;-61
2023/10/04 04:32:15;;;;;;;2.20;2.00;;;23.80;59.10;;;;;;217010;1298;24401;-58
2023/10/04 04:37:19;;;;;;;1.90;1.70;;;23.80;59.20;;;;;;217490;1291;22579;-60
2023/10/04 04:42:29;;;;;;;2.30;1.70;;;23.70;59.30;;;;;;217434;1298;22684;-62
2023/10/04 04:47:33;;;;;;;2.40;1.60;;;23.70;59.10;;;;;;217483;1294;22598;-61
2023/10/04 04:52:36;;;;;;;5.80;2.90;;;23.80;59.20;;;;;;217407;1298;22680;-59
2023/10/04 04:57:39;;;;;;;2.60;1.80;;;23.70;59.10;;;;;;217558;1298;24389;-61
2023/10/04 05:02:42;;;;;;;1.50;1.40;;;23.70;59.10;;;;;;217328;1295;22970;-61
2023/10/04 05:07:47;;;;;;;2.00;1.80;;;23.70;59.20;;;;;;217282;1298;25542;-62
2023/10/04 05:12:50;;;;;;;2.10;1.40;;;23.70;59.20;;;;;;217486;1298;22591;-61
2023/10/04 05:17:53;;;;;;;1.60;1.30;;;23.70;59.00;;;;;;217360;1298;22568;-61
2023/10/04 05:23:05;;;;;;;4.50;2.40;;;23.70;59.10;;;;;;217227;1294;22566;-60
2023/10/04 05:28:11;;;;;;;2.50;1.90;;;23.70;59.00;;;;;;217379;1276;24222;-59
2023/10/04 05:33:18;;;;;;;2.00;1.50;;;23.70;59.00;;;;;;217462;1291;25335;-61
2023/10/04 05:38:22;;;;;;;2.50;2.10;;;23.70;58.90;;;;;;217482;1291;22555;-61
2023/10/04 05:43:25;;;;;;;1.80;1.70;;;23.70;59.50;;;;;;217654;1291;22703;-60
2023/10/04 05:48:29;;;;;;;2.40;1.60;;;23.60;58.80;;;;;;217441;1298;24279;-61
2023/10/04 05:53:32;;;;;;;5.80;2.10;;;23.70;58.80;;;;;;217228;1298;22575;-62
2023/10/04 05:58:34;;;;;;;2.10;1.90;;;23.70;58.60;;;;;;217605;1298;23960;-60
2023/10/04 06:03:38;;;;;;;3.10;1.40;;;23.70;58.70;;;;;;217318;1298;22702;-61
2023/10/04 06:08:45;;;;;;;3.10;1.70;;;23.70;58.90;;;;;;217194;1288;25284;-61
2023/10/04 06:13:49;;;;;;;2.80;2.00;;;23.70;58.70;;;;;;217319;1295;22597;-59
2023/10/04 06:18:52;;;;;;;5.10;2.40;;;23.70;58.50;;;;;;217557;1298;22636;-61
2023/10/04 06:23:55;;;;;;;2.10;1.30;;;23.70;58.50;;;;;;217509;1298;22558;-61
2023/10/04 06:28:59;;;;;;;1.90;1.60;;;23.70;58.40;;;;;;217511;1298;22559;-60
2023/10/04 06:34:02;;;;;;;1.70;1.50;;;23.60;58.80;;;;;;217053;1298;22569;-60
2023/10/04 06:39:07;;;;;;;1.50;1.40;;;23.60;58.50;;;;;;217421;1297;22569;-60
2023/10/04 06:44:10;;;;;;;2.50;1.50;;;23.80;58.20;;;;;;217450;1298;22570;-59
2023/10/04 06:49:14;;;;;;;1.80;1.20;;;23.80;58.30;;;;;;217237;1297;22556;-61
2023/10/04 06:54:17;;;;;;;2.30;1.70;;;23.80;58.30;;;;;;217441;1294;25326;-60
2023/10/04 06:59:22;;;;;;;1.80;1.60;;;23.80;58.40;;;;;;217434;1298;22553;-60
2023/10/04 07:04:24;;;;;;;3.00;1.90;;;23.80;58.10;;;;;;217288;1299;22560;-62
2023/10/04 07:09:27;;;;;;;3.20;1.70;;;23.80;58.10;;;;;;217467;1298;22569;-61
2023/10/04 07:14:31;;;;;;;3.00;1.60;;;23.80;58.10;;;;;;217513;1285;24450;-62
2023/10/04 07:19:34;;;;;;;1.70;1.30;;;23.90;58.10;;;;;;217568;1295;22592;-61
2023/10/04 07:24:37;;;;;;;2.20;1.60;;;23.80;58.10;;;;;;217550;1298;22603;-59
2023/10/04 07:29:40;;;;;;;3.30;2.20;;;23.90;58.00;;;;;;217259;1298;22698;-66
2023/10/04 07:34:43;;;;;;;1.60;1.50;;;23.90;58.10;;;;;;217279;1298;23925;-66
2023/10/04 07:39:46;;;;;;;1.80;1.50;;;23.80;58.30;;;;;;217069;1298;22572;-66
2023/10/04 07:44:49;;;;;;;1.90;1.50;;;23.80;58.20;;;;;;217526;1298;22562;-66
2023/10/04 07:49:53;;;;;;;1.20;1.10;;;23.90;58.50;;;;;;217510;1298;26179;-66
2023/10/04 07:54:59;;;;;;;1.60;1.50;;;23.90;58.50;;;;;;217365;1298;22644;-66
2023/10/04 08:00:11;;;;;;;1.90;1.30;;;23.80;58.20;;;;;;217640;1297;22561;-65
2023/10/04 08:05:23;;;;;;;1.20;1.10;;;23.90;58.00;;;;;;217744;1294;22688;-66
2023/10/04 08:10:32;;;;;;;1.50;1.30;;;23.90;58.10;;;;;;217549;1297;25402;-65
2023/10/04 08:15:36;;;;;;;1.20;1.10;;;23.90;58.00;;;;;;217673;1292;24280;-65
2023/10/04 08:20:42;;;;;;;1.30;0.90;;;23.90;58.00;;;;;;217517;1291;22614;-66
2023/10/04 08:25:46;;;;;;;2.80;1.80;;;23.90;58.40;;;;;;217292;1292;22674;-66
2023/10/04 08:30:51;;;;;;;2.50;1.50;;;24.00;57.90;;;;;;217563;1292;22548;-67
2023/10/04 08:35:55;;;;;;;1.90;1.50;;;23.90;58.20;;;;;;217558;1298;22668;-66
2023/10/04 08:40:59;;;;;;;1.70;1.60;;;23.90;57.90;;;;;;217518;1298;22684;-67
2023/10/04 08:46:02;;;;;;;2.10;1.30;;;24.00;57.80;;;;;;217500;1298;25437;-66
2023/10/04 08:51:28;;;;;;;2.20;1.40;;;24.00;57.80;;;;;;217301;1297;22638;-65
2023/10/04 08:56:38;;;;;;;2.60;1.90;;;24.00;57.60;;;;;;217517;1297;22811;-65
2023/10/04 09:01:41;;;;;;;2.10;1.50;;;24.00;57.50;;;;;;217591;1297;25534;-65
2023/10/04 09:06:45;;;;;;;2.90;1.60;;;24.10;57.50;;;;;;217409;1298;23190;-66
2023/10/04 09:11:49;;;;;;;1.60;1.50;;;24.00;57.60;;;;;;217509;1295;22671;-64
2023/10/04 09:17:06;;;;;;;1.50;1.40;;;24.00;57.70;;;;;;217412;1297;22559;-66
2023/10/04 09:22:09;;;;;;;2.90;1.80;;;24.00;57.50;;;;;;217383;1298;24279;-65
2023/10/04 09:27:13;;;;;;;3.20;2.00;;;24.10;57.40;;;;;;217612;1282;22553;-64
2023/10/04 09:32:18;;;;;;;2.10;1.50;;;24.00;57.30;;;;;;217496;1298;22560;-66
2023/10/04 09:37:23;;;;;;;1.00;1.00;;;24.10;57.30;;;;;;217470;1295;22657;-67
2023/10/04 09:42:26;;;;;;;2.00;1.30;;;24.10;57.10;;;;;;217200;1295;22572;-65
2023/10/04 09:47:37;;;;;;;1.80;1.00;;;24.10;57.30;;;;;;217194;1298;22565;-61
2023/10/04 09:52:40;;;;;;;1.40;1.20;;;24.10;57.20;;;;;;217517;1292;22549;-60
2023/10/04 09:57:44;;;;;;;1.70;1.40;;;24.00;57.10;;;;;;217518;1298;22789;-61
2023/10/04 10:02:52;;;;;;;3.50;1.20;;;24.00;57.30;;;;;;217452;1297;22868;-61
2023/10/04 10:08:04;;;;;;;1.20;1.10;;;24.00;57.30;;;;;;217461;1298;22594;-61
2023/10/04 10:13:10;;;;;;;1.70;1.50;;;24.00;57.50;;;;;;217516;1295;23186;-62
2023/10/04 10:18:15;;;;;;;1.40;1.40;;;24.10;57.10;;;;;;217345;1298;22872;-62
2023/10/04 10:23:18;;;;;;;1.60;1.20;;;24.10;57.00;;;;;;217454;1298;22827;-61
2023/10/04 10:28:22;;;;;;;1.90;1.70;;;24.10;57.00;;;;;;217090;1297;22542;-61
2023/10/04 10:33:25;;;;;;;1.70;1.60;;;24.10;57.00;;;;;;217432;1298;22567;-61
2023/10/04 10:38:40;;;;;;;1.80;1.30;;;24.10;56.80;;;;;;217640;1298;24530;-61
2023/10/04 10:44:11;;;;;;;2.10;1.10;;;24.10;56.80;;;;;;217093;1298;23860;-61
2023/10/04 10:49:41;;;;;;;1.90;1.50;;;24.10;56.90;;;;;;217266;1298;22563;-60
2023/10/04 10:54:44;;;;;;;1.50;1.30;;;24.00;57.30;;;;;;217609;1298;22846;-61
2023/10/04 10:59:55;;;;;;;1.50;1.40;;;24.00;57.00;;;;;;217369;1298;22730;-61
2023/10/04 11:04:58;;;;;;;1.60;1.40;;;24.00;57.10;;;;;;217401;1295;24280;-61
2023/10/04 11:10:01;;;;;;;2.90;1.60;;;24.10;57.00;;;;;;217382;1294;22557;-62
2023/10/04 11:15:09;;;;;;;1.40;1.20;;;24.10;56.90;;;;;;217295;1298;24260;-61
2023/10/04 11:20:13;;;;;;;1.80;1.50;;;24.10;56.90;;;;;;217267;1292;22550;-62
2023/10/04 11:25:18;;;;;;;1.20;1.10;;;24.10;56.80;;;;;;217067;1299;22555;-61
2023/10/04 11:30:23;;;;;;;1.40;1.20;;;24.10;57.10;;;;;;217380;1294;24874;-62
2023/10/04 11:35:33;;;;;;;4.10;1.40;;;24.10;57.00;;;;;;217571;1292;22556;-60
2023/10/04 11:40:38;;;;;;;1.40;1.20;;;24.10;57.00;;;;;;217522;1294;22562;-61
2023/10/04 11:45:41;;;;;;;2.10;1.60;;;24.10;57.00;;;;;;217750;1298;22567;-63
2023/10/04 11:50:49;;;;;;;2.40;1.60;;;24.10;56.60;;;;;;217357;1292;25379;-61
2023/10/04 11:56:06;;;;;;;1.60;1.50;;;24.10;56.60;;;;;;217568;1295;22671;-62
2023/10/04 12:01:11;;;;;;;1.20;1.10;;;24.10;56.70;;;;;;217378;1298;22546;-62
2023/10/04 12:06:15;;;;;;;1.30;1.20;;;24.10;56.50;;;;;;217558;1298;23303;-61
2023/10/04 12:11:23;;;;;;;1.20;1.10;;;24.10;56.40;;;;;;217324;1298;22647;-61
2023/10/04 12:16:25;;;;;;;1.40;1.00;;;24.10;56.60;;;;;;217454;1294;25551;-60
2023/10/04 12:21:29;;;;;;;2.10;1.60;;;24.10;56.60;;;;;;217504;1288;22570;-61
2023/10/04 12:26:33;;;;;;;1.50;1.20;;;24.00;56.80;;;;;;217683;1298;24282;-64
2023/10/04 12:31:36;;;;;;;1.70;1.10;;;23.90;56.90;;;;;;217584;1292;22572;-60
2023/10/04 12:36:39;;;;;;;1.50;1.40;;;23.90;57.00;;;;;;217534;1294;22695;-61
2023/10/04 12:42:01;;;;;;;1.80;1.50;;;23.90;57.00;;;;;;217542;1286;22667;-61
2023/10/04 12:47:05;;;;;;;2.30;1.90;;;24.00;57.00;;;;;;217527;1298;22601;-61
2023/10/04 12:52:10;;;;;;;2.20;1.70;;;24.00;57.00;;;;;;217245;1295;22552;-61
2023/10/04 12:57:13;;;;;;;2.30;1.30;;;24.00;56.90;;;;;;217411;1298;22570;-61
2023/10/04 13:02:16;;;;;;;1.70;1.40;;;24.00;56.90;;;;;;217569;1298;22626;-60
2023/10/04 13:07:19;;;;;;;1.70;1.50;;;24.00;56.90;;;;;;217398;1295;22650;-62
2023/10/04 13:12:22;;;;;;;2.10;1.50;;;24.10;56.80;;;;;;217515;1295;22563;-59
2023/10/04 13:17:25;;;;;;;5.60;3.30;;;24.10;56.60;;;;;;217270;1295;22681;-66
2023/10/04 13:22:29;;;;;;;1.30;1.20;;;24.00;56.80;;;;;;217292;1298;24254;-66
2023/10/04 13:27:32;;;;;;;2.60;1.80;;;24.00;56.70;;;;;;217307;1295;22652;-66
2023/10/04 13:32:36;;;;;;;1.50;1.40;;;24.00;56.80;;;;;;217521;1298;25363;-66
2023/10/04 13:37:40;;;;;;;1.80;1.20;;;24.10;56.80;;;;;;217574;1295;23340;-64
2023/10/04 13:42:44;;;;;;;3.10;2.20;;;24.10;57.00;;;;;;217306;1292;24037;-68
2023/10/04 13:47:47;;;;;;;1.80;1.50;;;24.10;56.60;;;;;;217453;1298;22621;-66
2023/10/04 13:52:50;;;;;;;1.80;1.40;;;24.10;57.00;;;;;;217148;1298;25278;-66
2023/10/04 13:57:55;;;;;;;1.30;1.20;;;24.10;56.60;;;;;;217495;1295;25406;-66
2023/10/04 14:03:00;;;;;;;1.40;1.20;;;24.10;56.40;;;;;;217491;1298;23878;-66
2023/10/04 14:08:04;;;;;;;1.60;1.20;;;24.10;56.30;;;;;;217531;1298;24303;-69
2023/10/04 14:13:11;;;;;;;2.00;1.50;;;24.10;56.30;;;;;;217479;1298;23699;-66
2023/10/04 14:18:15;;;;;;;1.50;1.40;;;24.10;56.30;;;;;;217443;1298;22559;-66
2023/10/04 14:23:18;;;;;;;1.90;1.60;;;24.10;56.30;;;;;;216292;1303;25549;-68
2023/10/04 14:28:22;;;;;;;1.40;1.30;;;24.10;56.30;;;;;;216353;1298;22565;-66
2023/10/04 14:33:26;;;;;;;1.80;1.70;;;24.10;56.80;;;;;;216503;1300;22648;-66
2023/10/04 14:38:29;;;;;;;1.40;1.30;;;24.10;56.10;;;;;;216326;1298;22581;-65
2023/10/04 14:43:32;;;;;;;2.40;1.70;;;24.20;56.50;;;;;;217510;1295;22720;-66
2023/10/04 14:48:35;;;;;;;3.00;1.60;;;24.10;56.00;;;;;;217170;1283;22654;-65
2023/10/04 14:53:39;;;;;;;2.50;1.70;;;24.20;56.00;;;;;;217394;1298;22586;-65
2023/10/04 14:58:42;;;;;;;1.90;1.60;;;24.10;56.00;;;;;;217487;1298;22577;-66
2023/10/04 15:03:46;;;;;;;2.00;1.70;;;24.10;56.00;;;;;;217222;1298;22608;-66
2023/10/04 15:08:50;;;;;;;1.80;1.40;;;24.10;56.10;;;;;;217323;1299;214603;-66
2023/10/04 15:13:54;;;;;;;3.00;2.20;;;24.00;56.30;;;;;;217211;1299;23989;-65
2023/10/04 15:18:58;;;;;;;1.30;1.20;;;24.00;56.30;;;;;;217565;1298;22598;-64
2023/10/04 15:24:03;;;;;;;2.60;1.40;;;23.90;56.30;;;;;;217221;1298;24260;-66
2023/10/04 15:29:07;;;;;;;1.60;1.40;;;23.90;56.30;;;;;;217377;1295;22555;-65
2023/10/04 15:34:12;;;;;;;2.50;1.50;;;23.90;56.70;;;;;;217285;1298;22551;-65
2023/10/04 15:39:22;;;;;;;3.70;2.10;;;23.90;56.30;;;;;;217552;1283;22559;-59
2023/10/04 15:44:25;;;;;;;2.10;1.90;;;23.90;56.30;;;;;;217311;1299;24980;-61
2023/10/04 15:49:29;;;;;;;2.60;2.00;;;24.00;56.20;;;;;;217346;1292;22829;-63
2023/10/04 15:54:32;;;;;;;1.90;1.50;;;23.90;56.30;;;;;;217475;1298;24398;-63
2023/10/04 15:59:35;;;;;;;1.70;1.60;;;24.00;56.10;;;;;;217184;1298;22585;-60
2023/10/04 16:04:39;;;;;;;2.40;2.10;;;23.90;56.40;;;;;;217380;1283;22563;-61
2023/10/04 16:09:45;;;;;;;2.50;1.50;;;23.90;56.40;;;;;;217278;1299;24343;-61
2023/10/04 16:14:47;;;;;;;1.60;1.50;;;23.90;56.10;;;;;;217405;1298;25438;-62
2023/10/04 16:19:50;;;;;;;2.80;1.90;;;23.90;56.40;;;;;;216914;1287;22564;-62
2023/10/04 16:24:53;;;;;;;1.80;1.60;;;23.90;56.70;;;;;;217573;1288;24300;-63
2023/10/04 16:29:56;;;;;;;1.60;1.50;;;23.90;56.40;;;;;;217420;1298;23051;-62
2023/10/04 16:35:00;;;;;;;2.10;1.50;;;23.90;56.40;;;;;;217347;1298;24148;-60
2023/10/04 16:40:06;;;;;;;2.10;1.90;;;23.90;56.40;;;;;;217360;1298;22552;-63
2023/10/04 16:45:12;;;;;;;2.20;1.70;;;23.80;56.40;;;;;;217301;1292;25403;-61
2023/10/04 16:50:17;;;;;;;1.60;1.50;;;23.80;56.40;;;;;;217260;1291;24382;-65
2023/10/04 16:55:20;;;;;;;2.30;1.80;;;23.90;56.40;;;;;;217408;1298;24248;-66
2023/10/04 17:00:24;;;;;;;3.10;1.80;;;23.90;56.40;;;;;;217659;1297;22570;-67
2023/10/04 17:05:28;;;;;;;1.80;1.70;;;23.80;56.30;;;;;;217711;1298;25397;-68
2023/10/04 17:10:35;;;;;;;2.20;2.00;;;23.80;56.60;;;;;;217475;1298;24756;-66
2023/10/04 17:15:40;;;;;;;1.60;1.50;;;23.80;56.60;;;;;;217033;1298;22576;-65
2023/10/04 17:20:44;;;;;;;3.00;1.80;;;23.80;56.80;;;;;;217455;1298;22552;-65
2023/10/04 17:25:49;;;;;;;1.40;1.30;;;23.80;56.50;;;;;;217508;1298;24222;-67
2023/10/04 17:30:53;;;;;;;4.60;2.30;;;23.80;56.50;;;;;;217502;1293;22661;-66
2023/10/04 17:35:58;;;;;;;1.60;1.50;;;23.80;56.50;;;;;;217425;1294;25651;-66
2023/10/04 17:41:04;;;;;;;1.80;1.40;;;23.80;56.50;;;;;;217383;1278;25378;-68
2023/10/04 17:46:10;;;;;;;2.00;1.60;;;23.80;56.60;;;;;;217255;1298;22565;-66
2023/10/04 17:51:15;;;;;;;2.10;1.40;;;23.70;56.60;;;;;;217419;1298;25447;-65
2023/10/04 17:56:21;;;;;;;3.10;1.50;;;23.70;56.60;;;;;;216260;1303;23858;-67
2023/10/04 18:01:26;;;;;;;1.40;1.30;;;23.70;56.80;;;;;;215933;1303;22918;-62
2023/10/04 18:06:36;;;;;;;2.10;1.80;;;23.70;56.60;;;;;;216311;1303;24293;-62
2023/10/04 18:11:41;;;;;;;2.60;2.10;;;23.60;56.60;;;;;;216521;1303;23940;-61
2023/10/04 18:16:49;;;;;;;2.30;2.00;;;23.60;56.60;;;;;;216350;1300;24359;-60
2023/10/04 18:21:55;;;;;;;2.10;1.80;;;23.60;56.60;;;;;;217355;1298;25338;-61
2023/10/04 18:27:01;;;;;;;2.00;1.80;;;23.60;56.80;;;;;;217371;1298;22567;-61
2023/10/04 18:32:08;;;;;;;1.80;1.60;;;23.60;57.10;;;;;;217317;1298;26555;-61
2023/10/04 18:37:14;;;;;;;2.20;1.80;;;23.60;56.80;;;;;;217686;1298;22571;-62
2023/10/04 18:42:19;;;;;;;2.10;1.90;;;23.50;57.10;;;;;;217561;1295;24255;-60
2023/10/04 18:47:25;;;;;;;4.50;2.40;;;23.60;56.70;;;;;;217672;1298;24247;-62
2023/10/04 18:52:33;;;;;;;2.00;1.60;;;23.50;56.70;;;;;;217507;1298;22634;-62
2023/10/04 18:57:40;;;;;;;3.60;2.40;;;23.50;56.80;;;;;;217433;1298;22625;-62
2023/10/04 19:02:48;;;;;;;2.40;2.00;;;23.50;56.80;;;;;;217464;1294;22563;-62
2023/10/04 19:07:58;;;;;;;2.40;1.60;;;23.50;56.70;;;;;;217443;1298;24276;-66
2023/10/04 19:13:06;;;;;;;2.80;1.80;;;23.50;56.80;;;;;;217550;1298;22562;-66
2023/10/04 19:18:13;;;;;;;2.30;2.00;;;23.40;57.10;;;;;;217543;1298;24322;-65
2023/10/04 19:23:23;;;;;;;2.10;1.90;;;23.40;56.80;;;;;;216370;1303;24293;-65
2023/10/04 19:28:34;;;;;;;2.40;2.10;;;23.40;56.80;;;;;;216479;1303;22570;-68
2023/10/04 19:33:41;;;;;;;2.20;1.70;;;23.30;57.20;;;;;;216456;1298;22561;-64
2023/10/04 19:38:47;;;;;;;1.90;1.80;;;23.40;56.90;;;;;;216036;1303;22581;-65
2023/10/04 19:43:55;;;;;;;3.00;2.10;;;23.40;57.10;;;;;;216591;1303;25549;-67
2023/10/04 19:49:00;;;;;;;3.20;2.00;;;23.30;56.80;;;;;;217473;1298;23170;-65
2023/10/04 19:54:05;;;;;;;2.30;1.90;;;23.40;56.80;;;;;;217429;1298;22745;-67
2023/10/04 19:59:13;;;;;;;2.70;2.10;;;23.40;56.80;;;;;;217119;1298;22554;-66
2023/10/04 20:04:17;;;;;;;2.30;2.10;;;23.30;57.00;;;;;;217447;1283;23875;-66
2023/10/04 20:09:26;;;;;;;2.00;1.70;;;23.30;56.70;;;;;;217252;1292;25566;-66
2023/10/04 20:14:38;;;;;;;2.20;1.90;;;23.30;56.70;;;;;;217372;1298;23582;-65
2023/10/04 20:19:43;;;;;;;1.80;1.70;;;23.30;56.70;;;;;;217149;1298;22559;-65
2023/10/04 20:24:51;;;;;;;1.70;1.60;;;23.30;57.10;;;;;;217425;1291;22555;-67
2023/10/04 20:29:57;;;;;;;2.60;2.10;;;23.30;56.70;;;;;;217308;1298;22585;-65
2023/10/04 20:35:05;;;;;;;3.90;2.30;;;23.30;57.10;;;;;;217512;1298;22563;-66
2023/10/04 20:40:12;;;;;;;2.60;1.80;;;23.20;56.60;;;;;;217411;1294;22574;-66
2023/10/04 20:45:15;;;;;;;2.10;1.90;;;23.20;57.10;;;;;;217317;1297;23968;-66
2023/10/04 20:50:18;;;;;;;2.40;2.20;;;23.20;56.70;;;;;;217399;1298;24374;-66
2023/10/04 20:55:21;;;;;;;2.50;2.00;;;23.20;56.70;;;;;;217208;1291;22692;-66
2023/10/04 21:00:25;;;;;;;2.90;1.80;;;23.20;56.80;;;;;;217384;1283;22595;-65
2023/10/04 21:05:28;;;;;;;2.60;2.00;;;23.20;56.70;;;;;;217477;1294;25300;-66
2023/10/04 21:10:31;;;;;;;2.40;2.20;;;23.20;56.90;;;;;;217259;1297;22569;-66
2023/10/04 21:15:35;;;;;;;2.70;2.30;;;23.20;56.70;;;;;;217257;1295;22563;-67
2023/10/04 21:20:38;;;;;;;3.20;2.20;;;23.10;57.10;;;;;;217233;1298;22835;-66
2023/10/04 21:25:41;;;;;;;3.50;2.20;;;23.10;56.70;;;;;;216239;1301;24257;-65
2023/10/04 21:30:52;;;;;;;3.70;2.60;;;23.10;56.70;;;;;;216096;1304;22595;-66
2023/10/04 21:36:09;;;;;;;2.60;2.10;;;23.20;57.10;;;;;;216209;1303;22562;-66
2023/10/04 21:41:12;;;;;;;3.40;2.30;;;23.10;56.60;;;;;;216379;1298;22568;-64
2023/10/04 21:46:24;;;;;;;4.50;2.70;;;23.10;57.10;;;;;;217257;1298;22546;-65
2023/10/04 21:51:45;;;;;;;2.40;2.20;;;23.10;56.70;;;;;;217535;1298;22650;-66
2023/10/04 21:56:55;;;;;;;2.80;1.90;;;23.10;57.00;;;;;;217351;1298;24288;-64
2023/10/04 22:02:01;;;;;;;2.30;1.90;;;23.10;56.70;;;;;;217335;1288;22610;-65
2023/10/04 22:07:03;;;;;;;2.20;2.00;;;23.10;56.70;;;;;;217371;1288;22573;-65
2023/10/04 22:12:24;;;;;;;3.70;2.40;;;23.00;56.70;;;;;;217542;1298;24234;-67
2023/10/04 22:17:27;;;;;;;3.40;2.40;;;23.00;56.70;;;;;;217399;1291;24094;-67
2023/10/04 22:22:29;;;;;;;3.70;2.40;;;23.00;56.60;;;;;;217354;1298;22576;-64
2023/10/04 22:27:38;;;;;;;3.70;2.70;;;23.00;56.70;;;;;;217610;1298;22681;-68
2023/10/04 22:32:41;;;;;;;3.10;2.80;;;23.00;57.30;;;;;;217407;1292;22624;-65
2023/10/04 22:37:46;;;;;;;3.10;2.20;;;23.00;57.10;;;;;;217380;1288;24443;-66
2023/10/04 22:42:53;;;;;;;2.90;2.30;;;23.00;56.70;;;;;;217239;1294;22666;-60
2023/10/04 22:47:56;;;;;;;3.60;2.70;;;23.00;56.70;;;;;;217622;1294;22572;-62
2023/10/04 22:52:59;;;;;;;3.80;2.80;;;23.00;56.80;;;;;;217638;1298;22553;-62
2023/10/04 22:58:02;;;;;;;2.90;2.70;;;23.00;56.80;;;;;;217415;1292;22554;-62
2023/10/04 23:03:06;;;;;;;2.90;2.40;;;22.90;56.70;;;;;;217371;1292;22544;-60
2023/10/04 23:08:09;;;;;;;4.70;3.60;;;22.90;56.80;;;;;;217498;1282;22608;-60
2023/10/04 23:13:13;;;;;;;4.00;2.90;;;22.90;56.90;;;;;;217394;1298;22569;-61
2023/10/04 23:23:19;;;;;;;2.90;2.40;;;22.90;56.80;;;;;;217446;1291;23955;-61
2023/10/04 23:28:22;;;;;;;2.90;2.70;;;22.90;56.70;;;;;;217361;1298;22565;-60
2023/10/04 23:33:26;;;;;;;2.70;2.10;;;22.90;56.70;;;;;;217293;1298;25462;-61
2023/10/04 23:43:40;;;;;;;5.60;3.60;;;22.90;57.10;;;;;;217239;1294;23284;-60
2023/10/04 23:48:48;;;;;;;3.70;2.70;;;22.90;56.70;;;;;;217457;1294;22571;-61
2023/10/04 23:59:21;;;;;;;4.00;2.80;;;22.80;56.60;;;;;;217235;1298;22679;-60
